sensor_id;sensor_type;location;lat;lon;timestamp;P1;durP1;ratioP1;P2;durP2;ratioP2
42840;SDS011;28491;46.898;7.660;2023-02-21T00:01:58;11.23;;;6.65;;
42840;SDS011;28491;46.898;7.660;2023-02-21T00:04:42;9.23;;;5.82;;
42840;SDS011;28491;46.898;7.660;2023-02-21T00:07:26;11.45;;;5.55;;
42840;SDS011;28491;46.898;7.660;2023-02-21T00:10:13;9.27;;;5.75;;
42840;SDS011;28491;46.898;7.660;2023-02-21T00:12:58;8.63;;;5.22;;
42840;SDS011;28491;46.898;7.660;2023-02-21T00:15:42;8.27;;;5.63;;
42840;SDS011;28491;46.898;7.660;2023-02-21T00:18:26;9.98;;;5.95;;
42840;SDS011;28491;46.898;7.660;2023-02-21T00:21:11;12.23;;;6.43;;
42840;SDS011;28491;46.898;7.660;2023-02-21T00:23:55;10.43;;;6.93;;
42840;SDS011;28491;46.898;7.660;2023-02-21T00:26:39;6.72;;;5.38;;
42840;SDS011;28491;46.898;7.660;2023-02-21T00:29:23;14.90;;;6.22;;
42840;SDS011;28491;46.898;7.660;2023-02-21T00:32:08;10.32;;;6.10;;
42840;SDS011;28491;46.898;7.660;2023-02-21T00:34:52;11.07;;;6.60;;
42840;SDS011;28491;46.898;7.660;2023-02-21T00:37:36;9.40;;;5.63;;
42840;SDS011;28491;46.898;7.660;2023-02-21T00:40:20;10.93;;;5.68;;
42840;SDS011;28491;46.898;7.660;2023-02-21T00:43:05;9.98;;;6.85;;
42840;SDS011;28491;46.898;7.660;2023-02-21T00:45:49;13.32;;;8.27;;
42840;SDS011;28491;46.898;7.660;2023-02-21T00:48:32;12.43;;;6.60;;
42840;SDS011;28491;46.898;7.660;2023-02-21T00:51:16;8.77;;;5.97;;
42840;SDS011;28491;46.898;7.660;2023-02-21T00:54:01;9.57;;;6.25;;
42840;SDS011;28491;46.898;7.660;2023-02-21T00:56:45;7.57;;;5.30;;
42840;SDS011;28491;46.898;7.660;2023-02-21T00:59:29;10.63;;;6.88;;
42840;SDS011;28491;46.898;7.660;2023-02-21T01:02:14;8.48;;;6.35;;
42840;SDS011;28491;46.898;7.660;2023-02-21T01:04:58;10.40;;;6.90;;
42840;SDS011;28491;46.898;7.660;2023-02-21T01:07:42;10.85;;;6.60;;
42840;SDS011;28491;46.898;7.660;2023-02-21T01:10:26;7.13;;;5.35;;
42840;SDS011;28491;46.898;7.660;2023-02-21T01:13:10;9.43;;;6.40;;
42840;SDS011;28491;46.898;7.660;2023-02-21T01:15:54;10.73;;;7.15;;
42840;SDS011;28491;46.898;7.660;2023-02-21T01:18:38;10.43;;;6.85;;
42840;SDS011;28491;46.898;7.660;2023-02-21T01:21:22;8.45;;;6.68;;
42840;SDS011;28491;46.898;7.660;2023-02-21T01:24:08;10.90;;;6.35;;
42840;SDS011;28491;46.898;7.660;2023-02-21T01:26:54;10.15;;;5.82;;
42840;SDS011;28491;46.898;7.660;2023-02-21T01:29:38;8.35;;;5.75;;
42840;SDS011;28491;46.898;7.660;2023-02-21T01:32:22;9.10;;;6.03;;
42840;SDS011;28491;46.898;7.660;2023-02-21T01:35:06;8.82;;;5.70;;
42840;SDS011;28491;46.898;7.660;2023-02-21T01:37:51;9.60;;;6.00;;
42840;SDS011;28491;46.898;7.660;2023-02-21T01:40:38;9.60;;;6.85;;
42840;SDS011;28491;46.898;7.660;2023-02-21T01:43:23;8.80;;;5.10;;
42840;SDS011;28491;46.898;7.660;2023-02-21T01:46:10;8.40;;;6.32;;
42840;SDS011;28491;46.898;7.660;2023-02-21T01:48:56;9.77;;;5.45;;
42840;SDS011;28491;46.898;7.660;2023-02-21T01:51:43;10.57;;;6.68;;
42840;SDS011;28491;46.898;7.660;2023-02-21T01:54:29;10.50;;;6.07;;
42840;SDS011;28491;46.898;7.660;2023-02-21T01:57:16;10.57;;;6.30;;
42840;SDS011;28491;46.898;7.660;2023-02-21T02:00:03;8.27;;;5.53;;
42840;SDS011;28491;46.898;7.660;2023-02-21T02:03:00;8.48;;;5.95;;
42840;SDS011;28491;46.898;7.660;2023-02-21T02:05:49;8.77;;;5.65;;
42840;SDS011;28491;46.898;7.660;2023-02-21T02:08:38;13.52;;;6.88;;
42840;SDS011;28491;46.898;7.660;2023-02-21T02:14:53;8.27;;;6.20;;
42840;SDS011;28491;46.898;7.660;2023-02-21T02:20:46;6.38;;;4.90;;
42840;SDS011;28491;46.898;7.660;2023-02-21T02:34:47;9.40;;;6.28;;
42840;SDS011;28491;46.898;7.660;2023-02-21T02:40:18;8.65;;;5.85;;
42840;SDS011;28491;46.898;7.660;2023-02-21T02:50:50;7.43;;;5.18;;
42840;SDS011;28491;46.898;7.660;2023-02-21T02:53:24;8.05;;;4.97;;
42840;SDS011;28491;46.898;7.660;2023-02-21T02:55:52;8.85;;;5.53;;
42840;SDS011;28491;46.898;7.660;2023-02-21T02:58:24;8.63;;;5.57;;
42840;SDS011;28491;46.898;7.660;2023-02-21T03:01:22;9.27;;;6.07;;
42840;SDS011;28491;46.898;7.660;2023-02-21T03:04:37;7.85;;;5.07;;
42840;SDS011;28491;46.898;7.660;2023-02-21T03:12:51;5.95;;;4.38;;
42840;SDS011;28491;46.898;7.660;2023-02-21T03:18:14;8.30;;;4.50;;
42840;SDS011;28491;46.898;7.660;2023-02-21T03:20:41;7.38;;;4.60;;
42840;SDS011;28491;46.898;7.660;2023-02-21T03:23:08;8.13;;;4.57;;
42840;SDS011;28491;46.898;7.660;2023-02-21T03:25:37;8.30;;;4.90;;
42840;SDS011;28491;46.898;7.660;2023-02-21T03:28:03;8.63;;;5.10;;
42840;SDS011;28491;46.898;7.660;2023-02-21T03:30:30;6.95;;;4.50;;
42840;SDS011;28491;46.898;7.660;2023-02-21T03:32:55;8.82;;;5.20;;
42840;SDS011;28491;46.898;7.660;2023-02-21T03:35:22;10.50;;;5.20;;
42840;SDS011;28491;46.898;7.660;2023-02-21T03:37:49;9.50;;;5.00;;
42840;SDS011;28491;46.898;7.660;2023-02-21T03:40:20;7.70;;;4.43;;
42840;SDS011;28491;46.898;7.660;2023-02-21T03:42:49;8.65;;;5.63;;
42840;SDS011;28491;46.898;7.660;2023-02-21T03:45:15;8.85;;;5.40;;
42840;SDS011;28491;46.898;7.660;2023-02-21T03:47:41;8.30;;;5.00;;
42840;SDS011;28491;46.898;7.660;2023-02-21T03:50:07;7.53;;;5.03;;
42840;SDS011;28491;46.898;7.660;2023-02-21T03:52:33;6.72;;;5.38;;
42840;SDS011;28491;46.898;7.660;2023-02-21T03:54:58;9.07;;;5.28;;
42840;SDS011;28491;46.898;7.660;2023-02-21T03:57:24;9.00;;;5.60;;
42840;SDS011;28491;46.898;7.660;2023-02-21T03:59:50;10.13;;;6.50;;
42840;SDS011;28491;46.898;7.660;2023-02-21T04:02:15;6.85;;;5.28;;
42840;SDS011;28491;46.898;7.660;2023-02-21T04:04:41;6.80;;;4.68;;
42840;SDS011;28491;46.898;7.660;2023-02-21T04:07:07;7.68;;;5.28;;
42840;SDS011;28491;46.898;7.660;2023-02-21T04:09:34;7.70;;;5.35;;
42840;SDS011;28491;46.898;7.660;2023-02-21T04:12:00;8.68;;;5.38;;
42840;SDS011;28491;46.898;7.660;2023-02-21T04:14:26;10.23;;;5.07;;
42840;SDS011;28491;46.898;7.660;2023-02-21T04:16:51;8.68;;;4.80;;
42840;SDS011;28491;46.898;7.660;2023-02-21T04:19:17;7.90;;;5.53;;
42840;SDS011;28491;46.898;7.660;2023-02-21T04:21:42;8.30;;;5.07;;
42840;SDS011;28491;46.898;7.660;2023-02-21T04:24:08;8.98;;;4.75;;
42840;SDS011;28491;46.898;7.660;2023-02-21T04:26:33;8.70;;;5.50;;
42840;SDS011;28491;46.898;7.660;2023-02-21T04:28:59;7.70;;;5.70;;
42840;SDS011;28491;46.898;7.660;2023-02-21T04:31:25;7.72;;;5.85;;
42840;SDS011;28491;46.898;7.660;2023-02-21T04:33:50;7.70;;;4.53;;
42840;SDS011;28491;46.898;7.660;2023-02-21T04:36:16;8.77;;;5.57;;
42840;SDS011;28491;46.898;7.660;2023-02-21T04:38:42;9.77;;;7.43;;
42840;SDS011;28491;46.898;7.660;2023-02-21T04:41:08;12.48;;;7.45;;
42840;SDS011;28491;46.898;7.660;2023-02-21T04:43:33;16.00;;;8.98;;
42840;SDS011;28491;46.898;7.660;2023-02-21T04:45:59;12.23;;;7.30;;
42840;SDS011;28491;46.898;7.660;2023-02-21T04:48:24;9.35;;;6.97;;
42840;SDS011;28491;46.898;7.660;2023-02-21T04:50:50;9.50;;;5.93;;
42840;SDS011;28491;46.898;7.660;2023-02-21T04:53:16;10.90;;;6.07;;
42840;SDS011;28491;46.898;7.660;2023-02-21T04:55:41;11.00;;;7.90;;
42840;SDS011;28491;46.898;7.660;2023-02-21T04:58:07;9.95;;;6.82;;
42840;SDS011;28491;46.898;7.660;2023-02-21T05:00:33;30.42;;;17.00;;
42840;SDS011;28491;46.898;7.660;2023-02-21T05:02:58;32.38;;;18.08;;
42840;SDS011;28491;46.898;7.660;2023-02-21T05:05:24;33.95;;;17.77;;
42840;SDS011;28491;46.898;7.660;2023-02-21T05:07:50;37.58;;;21.08;;
42840;SDS011;28491;46.898;7.660;2023-02-21T05:10:16;20.48;;;11.23;;
42840;SDS011;28491;46.898;7.660;2023-02-21T05:12:42;17.98;;;11.32;;
42840;SDS011;28491;46.898;7.660;2023-02-21T05:15:08;13.88;;;8.63;;
42840;SDS011;28491;46.898;7.660;2023-02-21T05:17:34;11.82;;;8.75;;
42840;SDS011;28491;46.898;7.660;2023-02-21T05:20:00;15.73;;;9.70;;
42840;SDS011;28491;46.898;7.660;2023-02-21T05:22:26;22.70;;;12.88;;
42840;SDS011;28491;46.898;7.660;2023-02-21T05:24:52;17.75;;;10.38;;
42840;SDS011;28491;46.898;7.660;2023-02-21T05:27:18;13.68;;;7.88;;
42840;SDS011;28491;46.898;7.660;2023-02-21T05:29:49;10.35;;;7.63;;
42840;SDS011;28491;46.898;7.660;2023-02-21T05:32:17;12.95;;;9.38;;
42840;SDS011;28491;46.898;7.660;2023-02-21T05:34:45;10.63;;;7.18;;
42840;SDS011;28491;46.898;7.660;2023-02-21T05:37:14;14.57;;;9.07;;
42840;SDS011;28491;46.898;7.660;2023-02-21T05:39:42;14.07;;;9.98;;
42840;SDS011;28491;46.898;7.660;2023-02-21T05:42:08;16.40;;;9.38;;
42840;SDS011;28491;46.898;7.660;2023-02-21T05:44:34;11.90;;;7.72;;
42840;SDS011;28491;46.898;7.660;2023-02-21T05:46:59;13.65;;;7.43;;
42840;SDS011;28491;46.898;7.660;2023-02-21T05:49:26;11.50;;;8.05;;
42840;SDS011;28491;46.898;7.660;2023-02-21T05:51:52;15.07;;;7.78;;
42840;SDS011;28491;46.898;7.660;2023-02-21T05:54:18;11.70;;;7.70;;
42840;SDS011;28491;46.898;7.660;2023-02-21T05:56:46;15.68;;;8.90;;
42840;SDS011;28491;46.898;7.660;2023-02-21T05:59:12;13.48;;;7.93;;
42840;SDS011;28491;46.898;7.660;2023-02-21T06:01:39;21.55;;;11.20;;
42840;SDS011;28491;46.898;7.660;2023-02-21T06:04:05;18.70;;;11.45;;
42840;SDS011;28491;46.898;7.660;2023-02-21T06:06:32;12.45;;;7.60;;
42840;SDS011;28491;46.898;7.660;2023-02-21T06:08:58;13.60;;;7.38;;
42840;SDS011;28491;46.898;7.660;2023-02-21T06:11:25;10.68;;;7.32;;
42840;SDS011;28491;46.898;7.660;2023-02-21T06:13:52;11.70;;;8.82;;
42840;SDS011;28491;46.898;7.660;2023-02-21T06:16:20;11.20;;;7.90;;
42840;SDS011;28491;46.898;7.660;2023-02-21T06:18:53;12.02;;;7.05;;
42840;SDS011;28491;46.898;7.660;2023-02-21T06:21:20;9.82;;;6.72;;
42840;SDS011;28491;46.898;7.660;2023-02-21T06:23:45;10.60;;;7.20;;
42840;SDS011;28491;46.898;7.660;2023-02-21T06:26:11;16.40;;;8.98;;
42840;SDS011;28491;46.898;7.660;2023-02-21T06:28:37;8.70;;;6.15;;
42840;SDS011;28491;46.898;7.660;2023-02-21T06:31:03;10.52;;;6.82;;
42840;SDS011;28491;46.898;7.660;2023-02-21T06:33:29;9.45;;;6.32;;
42840;SDS011;28491;46.898;7.660;2023-02-21T06:35:55;12.25;;;6.72;;
42840;SDS011;28491;46.898;7.660;2023-02-21T06:38:21;12.68;;;6.13;;
42840;SDS011;28491;46.898;7.660;2023-02-21T06:40:46;13.55;;;7.38;;
42840;SDS011;28491;46.898;7.660;2023-02-21T06:43:13;10.30;;;6.43;;
42840;SDS011;28491;46.898;7.660;2023-02-21T06:45:39;12.63;;;7.72;;
42840;SDS011;28491;46.898;7.660;2023-02-21T06:48:05;11.02;;;6.55;;
42840;SDS011;28491;46.898;7.660;2023-02-21T06:50:31;12.35;;;7.75;;
42840;SDS011;28491;46.898;7.660;2023-02-21T06:52:58;8.82;;;6.82;;
42840;SDS011;28491;46.898;7.660;2023-02-21T06:55:24;17.80;;;9.27;;
42840;SDS011;28491;46.898;7.660;2023-02-21T06:57:49;16.30;;;8.07;;
42840;SDS011;28491;46.898;7.660;2023-02-21T07:00:15;13.77;;;7.75;;
42840;SDS011;28491;46.898;7.660;2023-02-21T07:02:41;19.58;;;7.97;;
42840;SDS011;28491;46.898;7.660;2023-02-21T07:05:07;11.57;;;8.07;;
42840;SDS011;28491;46.898;7.660;2023-02-21T07:07:33;11.70;;;7.72;;
42840;SDS011;28491;46.898;7.660;2023-02-21T07:09:59;10.27;;;7.00;;
42840;SDS011;28491;46.898;7.660;2023-02-21T07:12:24;10.73;;;6.60;;
42840;SDS011;28491;46.898;7.660;2023-02-21T07:14:51;14.43;;;7.47;;
42840;SDS011;28491;46.898;7.660;2023-02-21T07:17:17;14.55;;;7.80;;
42840;SDS011;28491;46.898;7.660;2023-02-21T07:19:43;11.48;;;7.88;;
42840;SDS011;28491;46.898;7.660;2023-02-21T07:22:09;11.70;;;6.18;;
42840;SDS011;28491;46.898;7.660;2023-02-21T07:24:34;8.57;;;5.88;;
42840;SDS011;28491;46.898;7.660;2023-02-21T07:27:00;7.60;;;4.57;;
42840;SDS011;28491;46.898;7.660;2023-02-21T07:29:25;10.75;;;5.15;;
42840;SDS011;28491;46.898;7.660;2023-02-21T07:31:51;6.25;;;4.82;;
42840;SDS011;28491;46.898;7.660;2023-02-21T07:34:17;7.05;;;4.13;;
42840;SDS011;28491;46.898;7.660;2023-02-21T07:36:43;12.07;;;5.43;;
42840;SDS011;28491;46.898;7.660;2023-02-21T07:39:10;8.75;;;4.70;;
42840;SDS011;28491;46.898;7.660;2023-02-21T07:41:35;6.90;;;4.60;;
42840;SDS011;28491;46.898;7.660;2023-02-21T07:44:01;11.68;;;5.10;;
42840;SDS011;28491;46.898;7.660;2023-02-21T07:46:27;5.97;;;4.18;;
42840;SDS011;28491;46.898;7.660;2023-02-21T07:48:53;9.05;;;4.95;;
42840;SDS011;28491;46.898;7.660;2023-02-21T07:51:19;8.38;;;4.65;;
42840;SDS011;28491;46.898;7.660;2023-02-21T07:53:45;9.68;;;4.35;;
42840;SDS011;28491;46.898;7.660;2023-02-21T07:56:10;6.57;;;3.90;;
42840;SDS011;28491;46.898;7.660;2023-02-21T07:58:36;6.97;;;4.53;;
42840;SDS011;28491;46.898;7.660;2023-02-21T08:01:05;5.80;;;4.38;;
42840;SDS011;28491;46.898;7.660;2023-02-21T08:03:31;8.63;;;4.43;;
42840;SDS011;28491;46.898;7.660;2023-02-21T08:05:57;7.80;;;4.65;;
42840;SDS011;28491;46.898;7.660;2023-02-21T08:08:24;6.80;;;4.25;;
42840;SDS011;28491;46.898;7.660;2023-02-21T08:10:50;7.82;;;4.07;;
42840;SDS011;28491;46.898;7.660;2023-02-21T08:13:16;5.82;;;3.83;;
42840;SDS011;28491;46.898;7.660;2023-02-21T08:15:41;9.15;;;4.32;;
42840;SDS011;28491;46.898;7.660;2023-02-21T08:18:14;9.45;;;5.50;;
42840;SDS011;28491;46.898;7.660;2023-02-21T08:20:43;7.68;;;3.83;;
42840;SDS011;28491;46.898;7.660;2023-02-21T08:23:08;6.65;;;4.40;;
42840;SDS011;28491;46.898;7.660;2023-02-21T08:25:34;6.32;;;4.63;;
42840;SDS011;28491;46.898;7.660;2023-02-21T08:27:59;7.28;;;5.50;;
42840;SDS011;28491;46.898;7.660;2023-02-21T08:30:25;8.52;;;4.80;;
42840;SDS011;28491;46.898;7.660;2023-02-21T08:32:50;9.13;;;5.00;;
42840;SDS011;28491;46.898;7.660;2023-02-21T08:35:17;8.35;;;5.45;;
42840;SDS011;28491;46.898;7.660;2023-02-21T08:37:44;9.00;;;6.13;;
42840;SDS011;28491;46.898;7.660;2023-02-21T08:40:10;10.85;;;5.10;;
42840;SDS011;28491;46.898;7.660;2023-02-21T08:42:37;8.27;;;5.18;;
42840;SDS011;28491;46.898;7.660;2023-02-21T08:45:03;10.43;;;6.03;;
42840;SDS011;28491;46.898;7.660;2023-02-21T08:47:29;8.45;;;5.13;;
42840;SDS011;28491;46.898;7.660;2023-02-21T08:49:58;8.15;;;5.72;;
42840;SDS011;28491;46.898;7.660;2023-02-21T08:52:24;7.40;;;5.38;;
42840;SDS011;28491;46.898;7.660;2023-02-21T08:54:49;10.25;;;4.60;;
42840;SDS011;28491;46.898;7.660;2023-02-21T08:57:15;7.57;;;4.68;;
42840;SDS011;28491;46.898;7.660;2023-02-21T08:59:42;9.20;;;4.72;;
42840;SDS011;28491;46.898;7.660;2023-02-21T09:02:16;7.93;;;5.03;;
42840;SDS011;28491;46.898;7.660;2023-02-21T09:04:43;10.60;;;5.57;;
42840;SDS011;28491;46.898;7.660;2023-02-21T09:07:11;5.72;;;4.28;;
42840;SDS011;28491;46.898;7.660;2023-02-21T09:09:37;9.53;;;4.97;;
42840;SDS011;28491;46.898;7.660;2023-02-21T09:12:03;13.25;;;4.75;;
42840;SDS011;28491;46.898;7.660;2023-02-21T09:14:32;6.38;;;4.35;;
42840;SDS011;28491;46.898;7.660;2023-02-21T09:17:02;8.85;;;5.15;;
42840;SDS011;28491;46.898;7.660;2023-02-21T09:19:29;7.07;;;3.90;;
42840;SDS011;28491;46.898;7.660;2023-02-21T09:21:54;6.68;;;3.92;;
42840;SDS011;28491;46.898;7.660;2023-02-21T09:24:20;8.05;;;4.25;;
42840;SDS011;28491;46.898;7.660;2023-02-21T09:29:18;7.32;;;3.90;;
42840;SDS011;28491;46.898;7.660;2023-02-21T09:31:44;7.40;;;3.90;;
42840;SDS011;28491;46.898;7.660;2023-02-21T09:34:10;5.45;;;3.92;;
42840;SDS011;28491;46.898;7.660;2023-02-21T09:36:35;7.70;;;3.30;;
42840;SDS011;28491;46.898;7.660;2023-02-21T09:39:01;10.13;;;4.47;;
42840;SDS011;28491;46.898;7.660;2023-02-21T09:41:30;6.47;;;4.22;;
42840;SDS011;28491;46.898;7.660;2023-02-21T09:43:56;5.88;;;4.32;;
42840;SDS011;28491;46.898;7.660;2023-02-21T09:49:13;5.53;;;3.60;;
42840;SDS011;28491;46.898;7.660;2023-02-21T09:52:00;10.43;;;4.15;;
42840;SDS011;28491;46.898;7.660;2023-02-21T09:57:01;6.03;;;4.20;;
42840;SDS011;28491;46.898;7.660;2023-02-21T09:59:29;7.30;;;4.10;;
42840;SDS011;28491;46.898;7.660;2023-02-21T10:13:21;8.05;;;3.90;;
42840;SDS011;28491;46.898;7.660;2023-02-21T10:16:00;7.30;;;4.43;;
42840;SDS011;28491;46.898;7.660;2023-02-21T10:18:47;6.73;;;4.17;;
42840;SDS011;28491;46.898;7.660;2023-02-21T10:21:40;7.28;;;3.83;;
42840;SDS011;28491;46.898;7.660;2023-02-21T10:24:11;7.28;;;3.50;;
42840;SDS011;28491;46.898;7.660;2023-02-21T10:26:39;5.70;;;3.67;;
42840;SDS011;28491;46.898;7.660;2023-02-21T10:32:10;7.50;;;4.13;;
42840;SDS011;28491;46.898;7.660;2023-02-21T10:34:36;6.03;;;3.70;;
42840;SDS011;28491;46.898;7.660;2023-02-21T10:37:03;6.60;;;4.38;;
42840;SDS011;28491;46.898;7.660;2023-02-21T10:39:54;5.90;;;4.03;;
42840;SDS011;28491;46.898;7.660;2023-02-21T10:42:30;5.50;;;3.75;;
42840;SDS011;28491;46.898;7.660;2023-02-21T10:45:00;6.35;;;3.33;;
42840;SDS011;28491;46.898;7.660;2023-02-21T10:50:38;5.85;;;3.30;;
42840;SDS011;28491;46.898;7.660;2023-02-21T10:53:09;7.30;;;3.83;;
42840;SDS011;28491;46.898;7.660;2023-02-21T10:56:05;8.57;;;3.75;;
42840;SDS011;28491;46.898;7.660;2023-02-21T10:58:34;9.82;;;4.43;;
42840;SDS011;28491;46.898;7.660;2023-02-21T11:01:13;5.88;;;3.72;;
42840;SDS011;28491;46.898;7.660;2023-02-21T11:04:38;7.45;;;3.97;;
42840;SDS011;28491;46.898;7.660;2023-02-21T11:06:49;11.18;;;4.05;;
42840;SDS011;28491;46.898;7.660;2023-02-21T11:14:39;5.32;;;3.80;;
42840;SDS011;28491;46.898;7.660;2023-02-21T11:17:13;5.63;;;4.32;;
42840;SDS011;28491;46.898;7.660;2023-02-21T11:22:38;10.90;;;4.13;;
42840;SDS011;28491;46.898;7.660;2023-02-21T11:31:02;7.55;;;4.50;;
42840;SDS011;28491;46.898;7.660;2023-02-21T11:33:29;4.25;;;3.15;;
42840;SDS011;28491;46.898;7.660;2023-02-21T11:36:09;5.68;;;3.50;;
42840;SDS011;28491;46.898;7.660;2023-02-21T11:38:39;12.20;;;4.40;;
42840;SDS011;28491;46.898;7.660;2023-02-21T11:41:19;6.55;;;3.10;;
42840;SDS011;28491;46.898;7.660;2023-02-21T11:43:51;5.72;;;3.65;;
42840;SDS011;28491;46.898;7.660;2023-02-21T11:49:07;5.55;;;3.20;;
42840;SDS011;28491;46.898;7.660;2023-02-21T11:51:45;7.35;;;3.95;;
42840;SDS011;28491;46.898;7.660;2023-02-21T11:54:30;5.80;;;3.03;;
42840;SDS011;28491;46.898;7.660;2023-02-21T11:57:03;5.05;;;3.35;;
42840;SDS011;28491;46.898;7.660;2023-02-21T12:02:50;4.93;;;3.08;;
42840;SDS011;28491;46.898;7.660;2023-02-21T12:05:27;10.43;;;6.18;;
42840;SDS011;28491;46.898;7.660;2023-02-21T12:08:44;5.05;;;3.53;;
42840;SDS011;28491;46.898;7.660;2023-02-21T12:14:18;5.97;;;3.92;;
42840;SDS011;28491;46.898;7.660;2023-02-21T12:28:23;5.82;;;3.58;;
42840;SDS011;28491;46.898;7.660;2023-02-21T12:49:53;7.32;;;4.53;;
42840;SDS011;28491;46.898;7.660;2023-02-21T12:52:30;7.15;;;4.88;;
42840;SDS011;28491;46.898;7.660;2023-02-21T13:00:16;7.72;;;4.10;;
42840;SDS011;28491;46.898;7.660;2023-02-21T13:05:55;9.55;;;5.13;;
42840;SDS011;28491;46.898;7.660;2023-02-21T13:08:32;6.82;;;3.95;;
42840;SDS011;28491;46.898;7.660;2023-02-21T13:11:15;5.57;;;3.55;;
42840;SDS011;28491;46.898;7.660;2023-02-21T13:13:53;7.97;;;3.58;;
42840;SDS011;28491;46.898;7.660;2023-02-21T13:16:20;5.85;;;4.35;;
42840;SDS011;28491;46.898;7.660;2023-02-21T13:18:48;5.45;;;4.10;;
42840;SDS011;28491;46.898;7.660;2023-02-21T13:29:30;11.48;;;6.03;;
42840;SDS011;28491;46.898;7.660;2023-02-21T13:32:01;7.55;;;5.20;;
42840;SDS011;28491;46.898;7.660;2023-02-21T13:34:36;6.70;;;4.85;;
42840;SDS011;28491;46.898;7.660;2023-02-21T13:37:05;10.23;;;6.03;;
42840;SDS011;28491;46.898;7.660;2023-02-21T13:39:44;10.38;;;5.93;;
42840;SDS011;28491;46.898;7.660;2023-02-21T13:42:16;9.80;;;6.18;;
42840;SDS011;28491;46.898;7.660;2023-02-21T13:44:45;11.45;;;7.13;;
42840;SDS011;28491;46.898;7.660;2023-02-21T13:55:32;11.77;;;6.95;;
42840;SDS011;28491;46.898;7.660;2023-02-21T14:03:01;12.00;;;6.55;;
42840;SDS011;28491;46.898;7.660;2023-02-21T14:10:57;12.02;;;7.30;;
42840;SDS011;28491;46.898;7.660;2023-02-21T14:16:46;9.30;;;6.80;;
42840;SDS011;28491;46.898;7.660;2023-02-21T14:19:10;10.25;;;7.30;;
42840;SDS011;28491;46.898;7.660;2023-02-21T14:21:45;10.68;;;7.28;;
42840;SDS011;28491;46.898;7.660;2023-02-21T14:24:21;12.65;;;7.75;;
42840;SDS011;28491;46.898;7.660;2023-02-21T14:29:16;10.00;;;7.43;;
42840;SDS011;28491;46.898;7.660;2023-02-21T14:37:14;13.35;;;8.52;;
42840;SDS011;28491;46.898;7.660;2023-02-21T14:40:11;10.43;;;7.13;;
42840;SDS011;28491;46.898;7.660;2023-02-21T14:42:51;10.63;;;7.57;;
42840;SDS011;28491;46.898;7.660;2023-02-21T14:51:26;13.18;;;7.65;;
42840;SDS011;28491;46.898;7.660;2023-02-21T15:03:26;12.77;;;8.27;;
42840;SDS011;28491;46.898;7.660;2023-02-21T15:06:06;15.55;;;9.13;;
42840;SDS011;28491;46.898;7.660;2023-02-21T15:08:40;12.70;;;9.13;;
42840;SDS011;28491;46.898;7.660;2023-02-21T15:14:09;18.08;;;10.20;;
42840;SDS011;28491;46.898;7.660;2023-02-21T15:16:35;12.82;;;10.07;;
42840;SDS011;28491;46.898;7.660;2023-02-21T15:19:03;15.55;;;11.63;;
42840;SDS011;28491;46.898;7.660;2023-02-21T15:21:28;16.00;;;10.70;;
42840;SDS011;28491;46.898;7.660;2023-02-21T15:24:01;23.70;;;14.90;;
42840;SDS011;28491;46.898;7.660;2023-02-21T15:26:36;23.27;;;17.13;;
42840;SDS011;28491;46.898;7.660;2023-02-21T15:29:12;26.02;;;18.48;;
42840;SDS011;28491;46.898;7.660;2023-02-21T15:31:42;19.80;;;12.70;;
42840;SDS011;28491;46.898;7.660;2023-02-21T15:34:31;18.55;;;11.63;;
42840;SDS011;28491;46.898;7.660;2023-02-21T15:37:02;15.80;;;10.00;;
42840;SDS011;28491;46.898;7.660;2023-02-21T15:39:41;14.45;;;10.05;;
42840;SDS011;28491;46.898;7.660;2023-02-21T15:42:10;14.95;;;10.88;;
42840;SDS011;28491;46.898;7.660;2023-02-21T15:44:47;15.27;;;10.75;;
42840;SDS011;28491;46.898;7.660;2023-02-21T15:47:23;13.98;;;10.15;;
42840;SDS011;28491;46.898;7.660;2023-02-21T15:57:40;14.50;;;9.68;;
42840;SDS011;28491;46.898;7.660;2023-02-21T16:00:16;14.80;;;10.88;;
42840;SDS011;28491;46.898;7.660;2023-02-21T16:02:49;14.75;;;10.15;;
42840;SDS011;28491;46.898;7.660;2023-02-21T16:05:24;16.67;;;10.50;;
42840;SDS011;28491;46.898;7.660;2023-02-21T16:07:52;17.92;;;9.95;;
42840;SDS011;28491;46.898;7.660;2023-02-21T16:10:23;13.93;;;10.52;;
42840;SDS011;28491;46.898;7.660;2023-02-21T16:12:54;20.33;;;11.13;;
42840;SDS011;28491;46.898;7.660;2023-02-21T16:15:23;16.67;;;11.15;;
42840;SDS011;28491;46.898;7.660;2023-02-21T16:17:58;13.43;;;10.50;;
42840;SDS011;28491;46.898;7.660;2023-02-21T16:23:11;15.52;;;10.60;;
42840;SDS011;28491;46.898;7.660;2023-02-21T16:28:28;21.35;;;9.68;;
42840;SDS011;28491;46.898;7.660;2023-02-21T16:30:55;17.58;;;10.30;;
42840;SDS011;28491;46.898;7.660;2023-02-21T16:33:23;14.80;;;10.85;;
42840;SDS011;28491;46.898;7.660;2023-02-21T16:35:49;13.10;;;10.13;;
42840;SDS011;28491;46.898;7.660;2023-02-21T16:38:17;16.77;;;10.75;;
42840;SDS011;28491;46.898;7.660;2023-02-21T16:40:44;13.30;;;10.40;;
42840;SDS011;28491;46.898;7.660;2023-02-21T16:43:17;14.60;;;10.23;;
42840;SDS011;28491;46.898;7.660;2023-02-21T16:45:45;16.08;;;10.90;;
42840;SDS011;28491;46.898;7.660;2023-02-21T16:48:19;19.40;;;11.20;;
42840;SDS011;28491;46.898;7.660;2023-02-21T16:50:52;17.45;;;11.13;;
42840;SDS011;28491;46.898;7.660;2023-02-21T16:53:17;14.85;;;11.70;;
42840;SDS011;28491;46.898;7.660;2023-02-21T16:55:44;16.67;;;11.95;;
42840;SDS011;28491;46.898;7.660;2023-02-21T17:00:50;14.38;;;10.27;;
42840;SDS011;28491;46.898;7.660;2023-02-21T17:03:21;17.75;;;11.77;;
42840;SDS011;28491;46.898;7.660;2023-02-21T17:05:48;18.75;;;14.20;;
42840;SDS011;28491;46.898;7.660;2023-02-21T17:08:15;27.97;;;16.30;;
42840;SDS011;28491;46.898;7.660;2023-02-21T17:10:41;22.70;;;13.95;;
42840;SDS011;28491;46.898;7.660;2023-02-21T17:13:07;24.27;;;15.25;;
42840;SDS011;28491;46.898;7.660;2023-02-21T17:15:32;30.67;;;17.02;;
42840;SDS011;28491;46.898;7.660;2023-02-21T17:17:59;31.83;;;18.40;;
42840;SDS011;28491;46.898;7.660;2023-02-21T17:20:25;41.78;;;19.92;;
42840;SDS011;28491;46.898;7.660;2023-02-21T17:22:52;42.03;;;21.90;;
42840;SDS011;28491;46.898;7.660;2023-02-21T17:25:19;32.13;;;21.08;;
42840;SDS011;28491;46.898;7.660;2023-02-21T17:27:46;39.92;;;22.45;;
42840;SDS011;28491;46.898;7.660;2023-02-21T17:30:13;26.13;;;16.10;;
42840;SDS011;28491;46.898;7.660;2023-02-21T17:32:39;23.52;;;14.38;;
42840;SDS011;28491;46.898;7.660;2023-02-21T17:35:05;26.10;;;18.35;;
42840;SDS011;28491;46.898;7.660;2023-02-21T17:37:31;27.88;;;18.15;;
42840;SDS011;28491;46.898;7.660;2023-02-21T17:39:57;27.13;;;17.48;;
42840;SDS011;28491;46.898;7.660;2023-02-21T17:42:23;26.55;;;17.60;;
42840;SDS011;28491;46.898;7.660;2023-02-21T17:44:49;24.55;;;16.70;;
42840;SDS011;28491;46.898;7.660;2023-02-21T17:47:19;28.25;;;15.52;;
42840;SDS011;28491;46.898;7.660;2023-02-21T17:49:46;26.83;;;17.27;;
42840;SDS011;28491;46.898;7.660;2023-02-21T17:52:13;23.27;;;15.55;;
42840;SDS011;28491;46.898;7.660;2023-02-21T17:54:39;28.65;;;16.67;;
42840;SDS011;28491;46.898;7.660;2023-02-21T17:57:05;23.35;;;15.82;;
42840;SDS011;28491;46.898;7.660;2023-02-21T17:59:33;21.70;;;15.95;;
42840;SDS011;28491;46.898;7.660;2023-02-21T18:01:59;26.90;;;15.95;;
42840;SDS011;28491;46.898;7.660;2023-02-21T18:04:24;26.73;;;16.17;;
42840;SDS011;28491;46.898;7.660;2023-02-21T18:06:50;29.92;;;17.75;;
42840;SDS011;28491;46.898;7.660;2023-02-21T18:09:16;24.63;;;14.88;;
42840;SDS011;28491;46.898;7.660;2023-02-21T18:11:46;25.70;;;15.38;;
42840;SDS011;28491;46.898;7.660;2023-02-21T18:14:13;30.33;;;15.77;;
42840;SDS011;28491;46.898;7.660;2023-02-21T18:16:39;30.55;;;17.23;;
42840;SDS011;28491;46.898;7.660;2023-02-21T18:19:04;22.92;;;15.00;;
42840;SDS011;28491;46.898;7.660;2023-02-21T18:21:30;21.48;;;14.23;;